createdAt,value
2018-07-01T00:01:56.495Z,59.26
2018-07-01T00:04:25.395Z,59.70
2018-07-01T00:06:55.050Z,60.06
2018-07-01T00:09:23.792Z,60.58
2018-07-01T00:11:53.358Z,60.67
2018-07-01T00:14:22.957Z,60.84
2018-07-01T00:16:52.476Z,60.76
2018-07-01T00:19:21.298Z,61.03
2018-07-01T00:21:50.058Z,61.17
2018-07-01T00:24:19.783Z,62.22
2018-07-01T00:26:49.313Z,61.60
2018-07-01T00:29:18.793Z,61.70
2018-07-01T00:31:47.561Z,62.57
2018-07-01T00:34:16.367Z,62.85
2018-07-01T00:36:45.191Z,62.49
2018-07-01T00:39:14.320Z,62.96
2018-07-01T00:41:43.253Z,63.47
2018-07-01T00:44:12.978Z,63.70
2018-07-01T00:46:41.815Z,63.86
2018-07-01T00:49:11.040Z,63.20
2018-07-01T00:51:40.057Z,63.99
2018-07-01T00:54:09.551Z,64.16
2018-07-01T00:56:39.646Z,64.13
2018-07-01T00:59:09.727Z,63.58
2018-07-01T01:01:39.242Z,63.47
2018-07-01T01:04:08.230Z,64.67
2018-07-01T01:06:39.059Z,64.20
2018-07-01T01:09:10.625Z,64.30
2018-07-01T01:11:40.542Z,64.48
2018-07-01T01:14:10.367Z,65.28
2018-07-01T01:16:43.057Z,64.14
2018-07-01T01:19:11.947Z,64.24
2018-07-01T01:21:40.736Z,64.92
2018-07-01T01:24:10.501Z,64.33
2018-07-01T01:26:41.385Z,64.66
2018-07-01T01:29:11.038Z,63.87
2018-07-01T01:31:40.139Z,63.91
2018-07-01T01:34:09.243Z,64.83
2018-07-01T01:36:39.246Z,65.05
2018-07-01T01:39:14.574Z,65.02
2018-07-01T01:41:47.528Z,65.10
2018-07-01T01:44:22.723Z,65.32
2018-07-01T01:46:54.823Z,65.09
2018-07-01T01:49:26.091Z,65.54
2018-07-01T01:51:59.853Z,65.99
2018-07-01T01:54:32.679Z,65.61
2018-07-01T01:57:10.279Z,65.70
2018-07-01T01:59:58.557Z,65.18
2018-07-01T02:02:33.896Z,65.15
2018-07-01T02:05:14.691Z,65.39
2018-07-01T02:07:54.703Z,64.73
2018-07-01T02:10:23.578Z,65.49
2018-07-01T02:12:53.473Z,64.80
2018-07-01T02:15:26.433Z,63.76
2018-07-01T02:17:56.930Z,63.76
2018-07-01T02:20:30.430Z,64.10
2018-07-01T02:24:09.487Z,63.12
2018-07-01T02:26:39.324Z,61.13
2018-07-01T02:29:08.495Z,61.02
2018-07-01T02:31:37.632Z,59.41
2018-07-01T02:34:06.678Z,58.55
2018-07-01T02:36:35.632Z,58.15
2018-07-01T02:39:08.930Z,58.11
2018-07-01T02:41:38.106Z,57.06
2018-07-01T02:44:07.960Z,56.93
2018-07-01T02:46:37.983Z,56.35
2018-07-01T02:49:07.067Z,56.02
2018-07-01T02:51:35.893Z,56.43
2018-07-01T02:54:04.954Z,56.00
2018-07-01T02:56:34.726Z,54.00
2018-07-01T02:59:04.743Z,51.50
2018-07-01T03:01:33.493Z,48.72
2018-07-01T03:04:02.278Z,46.75
2018-07-01T03:06:31.943Z,44.84
2018-07-01T03:09:00.918Z,43.17
2018-07-01T03:11:30.420Z,40.96
2018-07-01T03:14:00.275Z,40.59
2018-07-01T03:16:29.954Z,39.83
2018-07-01T03:18:59.397Z,38.17
2018-07-01T03:21:28.158Z,37.63
2018-07-01T03:23:57.640Z,36.58
2018-07-01T03:26:27.120Z,35.64
2018-07-01T03:28:56.431Z,35.11
2018-07-01T03:31:25.207Z,34.92
2018-07-01T03:33:54.022Z,34.12
2018-07-01T03:36:22.756Z,34.10
2018-07-01T03:38:51.595Z,34.44
2018-07-01T03:41:20.376Z,33.86
2018-07-01T03:43:50.006Z,33.11
2018-07-01T03:46:19.713Z,32.93
2018-07-01T03:48:48.485Z,32.26
2018-07-01T03:51:17.263Z,32.60
2018-07-01T03:53:46.060Z,33.14
2018-07-01T03:56:15.682Z,32.88
2018-07-01T03:58:44.440Z,32.83
2018-07-01T04:01:13.404Z,33.01
2018-07-01T04:03:42.261Z,33.98
2018-07-01T04:06:12.037Z,33.39
2018-07-01T04:08:41.210Z,34.28
2018-07-01T04:11:11.354Z,34.33
2018-07-01T04:13:41.503Z,34.10
2018-07-01T04:16:11.426Z,35.60
2018-07-01T04:18:41.230Z,36.27
2018-07-01T04:21:11.014Z,37.41
2018-07-01T04:23:40.650Z,38.25
2018-07-01T04:26:10.793Z,39.51
2018-07-01T04:28:39.762Z,40.97
2018-07-01T04:31:09.055Z,41.65
2018-07-01T04:33:37.988Z,42.92
2018-07-01T04:36:06.963Z,43.26
2018-07-01T04:38:35.826Z,45.51
2018-07-01T04:41:04.822Z,45.45
2018-07-01T04:43:34.735Z,46.60
2018-07-01T04:46:04.478Z,47.07
2018-07-01T04:48:33.210Z,46.79
2018-07-01T04:51:02.330Z,47.74
2018-07-01T04:53:31.165Z,47.41
2018-07-01T04:56:00.998Z,48.44
2018-07-01T04:58:29.768Z,47.96
2018-07-01T05:00:58.975Z,47.96
2018-07-01T05:03:27.770Z,48.39
2018-07-01T05:05:57.407Z,48.89
2018-07-01T05:08:26.674Z,48.79
2018-07-01T05:10:56.267Z,49.29
2018-07-01T05:13:25.022Z,49.11
2018-07-01T05:15:54.485Z,48.98
2018-07-01T05:18:24.134Z,49.41
2018-07-01T05:20:52.901Z,48.82
2018-07-01T05:23:22.226Z,48.86
2018-07-01T05:25:51.826Z,49.06
2018-07-01T05:28:20.570Z,48.92
2018-07-01T05:30:49.345Z,48.03
2018-07-01T05:33:18.111Z,48.37
2018-07-01T05:35:46.945Z,49.04
2018-07-01T05:38:15.975Z,48.40
2018-07-01T05:40:44.770Z,48.67
2018-07-01T05:43:14.579Z,48.56
2018-07-01T05:45:44.386Z,47.96
2018-07-01T05:48:13.838Z,48.31
2018-07-01T05:50:42.609Z,48.36
2018-07-01T05:53:11.453Z,47.95
2018-07-01T05:55:41.074Z,48.46
2018-07-01T05:58:10.503Z,48.19
2018-07-01T06:00:39.628Z,48.31
2018-07-01T06:03:08.833Z,47.76
2018-07-01T06:05:38.703Z,47.29
2018-07-01T06:08:08.902Z,46.88
2018-07-01T06:10:38.004Z,47.14
2018-07-01T06:13:07.819Z,47.42
2018-07-01T06:15:38.208Z,46.71
2018-07-01T06:18:07.982Z,47.53
2018-07-01T06:20:37.067Z,47.48
2018-07-01T06:23:07.097Z,46.24
2018-07-01T06:25:36.913Z,46.70
2018-07-01T06:28:05.930Z,46.54
2018-07-01T06:30:34.736Z,46.97
2018-07-01T06:33:03.547Z,46.31
2018-07-01T06:35:32.275Z,46.69
2018-07-01T06:38:01.166Z,45.84
2018-07-01T06:40:29.946Z,45.50
2018-07-01T06:42:59.616Z,44.97
2018-07-01T06:45:28.353Z,45.33
2018-07-01T06:47:58.005Z,44.56
2018-07-01T06:50:26.737Z,44.45
2018-07-01T06:52:55.476Z,44.00
2018-07-01T06:55:25.093Z,43.99
2018-07-01T06:57:53.816Z,43.78
2018-07-01T07:00:22.690Z,43.34
2018-07-01T07:02:51.486Z,43.57
2018-07-01T07:05:21.166Z,43.55
2018-07-01T07:07:50.913Z,43.91
2018-07-01T07:10:19.745Z,43.39
2018-07-01T07:12:49.255Z,43.63
2018-07-01T07:15:18.820Z,43.53
2018-07-01T07:17:48.227Z,43.85
2018-07-01T07:20:17.654Z,43.50
2018-07-01T07:22:47.105Z,44.33
2018-07-01T07:25:16.844Z,44.05
2018-07-01T07:27:45.621Z,43.03
2018-07-01T07:30:14.392Z,41.68
2018-07-01T07:32:43.178Z,41.83
2018-07-01T07:35:12.031Z,41.61
2018-07-01T07:37:40.944Z,41.67
2018-07-01T07:40:10.101Z,42.29
2018-07-01T07:42:39.282Z,42.07
2018-07-01T07:45:09.098Z,40.68
2018-07-01T07:47:39.018Z,40.56
2018-07-01T07:50:07.920Z,39.39
2018-07-01T07:52:37.012Z,39.53
2018-07-01T07:55:06.095Z,40.00
2018-07-01T07:57:35.978Z,39.42
2018-07-01T08:00:05.226Z,39.32
2018-07-01T08:02:34.054Z,40.01
2018-07-01T08:05:04.045Z,40.16
2018-07-01T08:07:33.575Z,39.11
2018-07-01T08:10:02.401Z,38.56
2018-07-01T08:12:32.078Z,37.67
2018-07-01T08:15:01.743Z,38.27
2018-07-01T08:17:31.296Z,38.42
2018-07-01T08:20:00.732Z,38.40
2018-07-01T08:22:30.337Z,37.66
2018-07-01T08:24:59.862Z,37.30
2018-07-01T08:27:28.726Z,36.68
2018-07-01T08:29:57.460Z,38.38
2018-07-01T08:32:26.279Z,37.53
2018-07-01T08:34:55.158Z,38.81
2018-07-01T08:37:24.123Z,38.27
2018-07-01T08:39:52.966Z,38.40
2018-07-01T08:42:28.579Z,38.09
2018-07-01T08:44:59.235Z,38.46
2018-07-01T08:47:28.189Z,38.23
2018-07-01T08:49:56.976Z,37.65
2018-07-01T08:52:25.820Z,37.61
2018-07-01T08:54:54.673Z,37.15
2018-07-01T08:57:24.637Z,36.58
2018-07-01T08:59:54.320Z,37.12
2018-07-01T09:02:23.245Z,36.75
2018-07-01T09:04:52.926Z,36.94
2018-07-01T09:07:22.725Z,36.86
2018-07-01T09:09:51.932Z,36.32
2018-07-01T09:12:21.516Z,35.90
2018-07-01T09:14:51.231Z,37.00
2018-07-01T09:17:20.581Z,36.27
2018-07-01T09:19:49.968Z,35.85
2018-07-01T09:22:19.791Z,36.64
2018-07-01T09:24:49.442Z,36.19
2018-07-01T09:27:18.222Z,36.88
2018-07-01T09:29:52.214Z,36.40
2018-07-01T09:32:21.014Z,36.41
2018-07-01T09:34:50.107Z,34.61
2018-07-01T09:37:18.934Z,35.80
2018-07-01T09:39:47.679Z,35.58
2018-07-01T09:42:16.473Z,34.47
2018-07-01T09:44:45.816Z,36.06
2018-07-01T09:47:14.586Z,36.21
2018-07-01T09:49:43.338Z,35.56
2018-07-01T09:52:12.232Z,36.02
2018-07-01T09:54:41.158Z,34.63
2018-07-01T09:57:11.096Z,34.64
2018-07-01T09:59:41.084Z,33.09
2018-07-01T10:02:10.136Z,32.89
2018-07-01T10:04:39.719Z,33.70
2018-07-01T10:07:09.573Z,33.58
2018-07-01T10:09:38.672Z,34.88
2018-07-01T10:12:09.339Z,34.09
2018-07-01T10:14:39.418Z,33.81
2018-07-01T10:17:08.989Z,33.91
2018-07-01T10:19:38.948Z,33.49
2018-07-01T10:22:08.815Z,33.86
2018-07-01T10:24:37.730Z,32.63
2018-07-01T10:27:07.744Z,34.23
2018-07-01T10:29:36.482Z,33.59
2018-07-01T10:32:05.268Z,32.99
2018-07-01T10:34:34.080Z,33.48
2018-07-01T10:37:02.855Z,33.70
2018-07-01T10:39:31.774Z,33.23
2018-07-01T10:42:00.667Z,33.37
2018-07-01T10:44:30.101Z,33.76
2018-07-01T10:46:58.870Z,33.57
2018-07-01T10:49:27.596Z,33.19
2018-07-01T10:51:56.414Z,33.45
2018-07-01T10:54:25.380Z,33.89
2018-07-01T10:56:54.815Z,33.26
2018-07-01T10:59:24.421Z,33.32
2018-07-01T11:01:53.182Z,33.89
2018-07-01T11:04:21.983Z,33.87
2018-07-01T11:06:51.598Z,34.18
2018-07-01T11:09:20.335Z,33.47
2018-07-01T11:11:49.923Z,32.09
2018-07-01T11:14:19.815Z,33.15
2018-07-01T11:16:49.313Z,33.17
2018-07-01T11:19:18.903Z,33.20
2018-07-01T11:21:47.675Z,34.38
2018-07-01T11:24:17.166Z,34.79
2018-07-01T11:26:46.787Z,34.59
2018-07-01T11:29:15.579Z,34.49
2018-07-01T11:31:44.352Z,34.74
2018-07-01T11:34:13.120Z,33.60
2018-07-01T11:36:42.080Z,34.08
2018-07-01T11:39:12.058Z,33.77
2018-07-01T11:41:41.191Z,32.76
2018-07-01T11:44:11.318Z,33.65
2018-07-01T11:46:40.318Z,34.40
2018-07-01T11:49:09.319Z,34.66
2018-07-01T11:51:38.214Z,33.91
2018-07-01T11:54:07.240Z,34.42
2018-07-01T11:56:36.787Z,34.13
2018-07-01T11:59:05.564Z,33.71
2018-07-01T12:01:35.133Z,34.19
2018-07-01T12:04:04.011Z,33.76
2018-07-01T12:06:33.355Z,33.88
2018-07-01T12:09:02.426Z,33.67
2018-07-01T12:11:31.163Z,33.00
2018-07-01T12:14:00.595Z,32.16
2018-07-01T12:16:30.366Z,32.71
2018-07-01T12:18:59.856Z,33.36
2018-07-01T12:21:28.585Z,32.89
2018-07-01T12:23:59.166Z,32.53
2018-07-01T12:26:28.588Z,32.70
2018-07-01T12:28:57.330Z,32.59
2018-07-01T12:31:26.257Z,33.14
2018-07-01T12:33:55.053Z,32.35
2018-07-01T12:36:23.802Z,32.48
2018-07-01T12:38:52.832Z,32.84
2018-07-01T12:41:21.619Z,31.61
2018-07-01T12:43:51.073Z,33.28
2018-07-01T12:46:19.860Z,32.07
2018-07-01T12:48:48.608Z,32.70
2018-07-01T12:51:17.489Z,32.91
2018-07-01T12:53:46.237Z,33.27
2018-07-01T12:56:15.970Z,33.65
2018-07-01T12:58:45.302Z,32.72
2018-07-01T13:01:14.810Z,31.15
2018-07-01T13:03:43.618Z,31.74
2018-07-01T13:06:13.315Z,31.12
2018-07-01T13:08:42.123Z,32.35
2018-07-01T13:11:11.239Z,31.69
2018-07-01T13:13:41.298Z,32.49
2018-07-01T13:16:10.990Z,32.19
2018-07-01T13:18:41.476Z,32.06
2018-07-01T13:21:11.130Z,31.86
2018-07-01T13:23:40.961Z,32.17
2018-07-01T13:26:09.940Z,32.53
2018-07-01T13:28:38.979Z,32.99
2018-07-01T13:31:08.576Z,31.27
2018-07-01T13:33:38.668Z,31.17
2018-07-01T13:36:07.429Z,31.47
2018-07-01T13:38:36.878Z,31.56
2018-07-01T13:41:06.813Z,30.71
2018-07-01T13:43:36.502Z,31.62
2018-07-01T13:46:05.462Z,31.91
2018-07-01T13:48:34.220Z,31.99
2018-07-01T13:51:03.057Z,30.52
2018-07-01T13:53:31.814Z,31.96
2018-07-01T13:56:01.301Z,30.74
2018-07-01T13:58:30.911Z,30.44
2018-07-01T14:01:00.432Z,30.92
2018-07-01T14:03:29.198Z,31.87
2018-07-01T14:05:58.862Z,30.94
2018-07-01T14:08:28.276Z,31.91
2018-07-01T14:10:57.051Z,31.21
2018-07-01T14:13:25.969Z,30.23
2018-07-01T14:15:55.607Z,29.98
2018-07-01T14:18:25.467Z,29.85
2018-07-01T14:20:54.255Z,30.01
2018-07-01T14:23:23.571Z,30.67
2018-07-01T14:25:52.367Z,30.60
2018-07-01T14:28:21.132Z,30.46
2018-07-01T14:30:50.015Z,29.72
2018-07-01T14:33:19.284Z,29.00
2018-07-01T14:35:48.030Z,30.19
2018-07-01T14:38:16.847Z,29.76
2018-07-01T14:40:46.345Z,29.89
2018-07-01T14:43:15.875Z,29.82
2018-07-01T14:45:44.627Z,30.03
2018-07-01T14:48:13.456Z,30.06
2018-07-01T14:50:42.217Z,29.41
2018-07-01T14:53:11.377Z,30.09
2018-07-01T14:55:42.459Z,28.54
2018-07-01T14:58:13.482Z,28.67
2018-07-01T15:00:42.727Z,29.11
2018-07-01T15:03:11.991Z,29.38
2018-07-01T15:05:41.110Z,29.53
2018-07-01T15:08:11.003Z,30.91
2018-07-01T15:10:40.868Z,29.49
2018-07-01T15:13:09.972Z,29.06
2018-07-01T15:15:40.384Z,28.69
2018-07-01T15:18:10.258Z,29.46
2018-07-01T15:20:39.302Z,29.19
2018-07-01T15:23:09.010Z,29.29
2018-07-01T15:25:37.962Z,28.53
2018-07-01T15:28:07.066Z,28.65
2018-07-01T15:30:35.885Z,28.49
2018-07-01T15:33:06.211Z,27.82
2018-07-01T15:35:34.954Z,26.09
2018-07-01T15:38:03.754Z,25.50
2018-07-01T15:40:33.254Z,24.44
2018-07-01T15:43:02.862Z,23.95
2018-07-01T15:45:31.598Z,23.54
2018-07-01T15:48:00.361Z,21.54
2018-07-01T15:50:29.193Z,23.01
2018-07-01T15:55:30.268Z,22.96
2018-07-01T15:57:59.705Z,22.36
2018-07-01T16:00:29.164Z,22.46
2018-07-01T16:02:57.902Z,21.65
2018-07-01T16:05:27.131Z,21.65
2018-07-01T16:07:56.682Z,21.04
2018-07-01T16:10:25.526Z,20.62
2018-07-01T16:12:54.926Z,21.52
2018-07-01T16:15:24.614Z,20.19
2018-07-01T16:17:54.178Z,20.86
2018-07-01T16:20:23.664Z,19.79
2018-07-01T16:22:53.182Z,19.60
2018-07-01T16:25:27.147Z,21.20
2018-07-01T16:28:01.114Z,20.39
2018-07-01T16:30:29.892Z,20.19
2018-07-01T16:33:00.666Z,19.36
2018-07-01T16:35:29.435Z,19.65
2018-07-01T16:37:58.183Z,19.49
2018-07-01T16:40:27.788Z,19.56
2018-07-01T16:42:56.874Z,19.00
2018-07-01T16:45:26.428Z,20.11
2018-07-01T16:47:55.255Z,20.39
2018-07-01T16:50:24.087Z,19.19
2018-07-01T16:52:52.882Z,19.75
2018-07-01T16:55:22.254Z,19.02
2018-07-01T16:57:51.970Z,18.77
2018-07-01T17:00:21.362Z,19.18
2018-07-01T17:02:50.103Z,18.97
2018-07-01T17:05:18.925Z,19.44
2018-07-01T17:07:48.206Z,20.42
2018-07-01T17:10:17.560Z,21.83
2018-07-01T17:12:46.331Z,21.78
2018-07-01T17:15:16.949Z,21.42
2018-07-01T17:17:46.226Z,20.60
2018-07-01T17:20:15.662Z,20.79
2018-07-01T17:22:45.330Z,22.04
2018-07-01T17:25:14.113Z,21.46
2018-07-01T17:27:42.878Z,21.82
2018-07-01T17:30:11.713Z,22.35
2018-07-01T17:32:47.943Z,21.25
2018-07-01T17:35:16.759Z,21.08
2018-07-01T17:37:45.566Z,21.08
2018-07-01T17:40:15.283Z,21.18
2018-07-01T17:42:44.011Z,21.22
2018-07-01T17:45:13.683Z,20.74
2018-07-01T17:47:42.488Z,20.87
2018-07-01T17:50:11.337Z,20.93
2018-07-01T17:52:41.144Z,21.22
2018-07-01T17:55:10.231Z,21.50
2018-07-01T17:57:40.282Z,20.72
2018-07-01T18:00:10.811Z,21.75
2018-07-01T18:02:41.706Z,21.75
2018-07-01T18:05:11.352Z,21.68
2018-07-01T18:07:41.895Z,21.64
2018-07-01T18:10:10.971Z,20.94
2018-07-01T18:12:39.943Z,21.97
2018-07-01T18:15:09.934Z,22.49
2018-07-01T18:17:40.557Z,22.41
2018-07-01T18:20:10.718Z,22.44
2018-07-01T18:23:09.755Z,22.46
2018-07-01T18:25:12.020Z,23.38
2018-07-01T18:27:49.652Z,23.17
2018-07-01T18:30:08.983Z,22.79
2018-07-01T18:32:37.813Z,23.33
2018-07-01T18:35:06.591Z,23.85
2018-07-01T18:37:35.456Z,23.32
2018-07-01T18:40:05.304Z,23.83
2018-07-01T18:42:34.075Z,24.88
2018-07-01T18:45:03.854Z,25.73
2018-07-01T18:47:32.623Z,26.73
2018-07-01T18:50:01.766Z,27.43
2018-07-01T18:52:30.611Z,27.77
2018-07-01T18:54:59.526Z,28.85
2018-07-01T18:57:29.468Z,29.46
2018-07-01T18:59:59.586Z,30.48
2018-07-01T19:02:28.326Z,30.70
2018-07-01T19:04:58.920Z,31.47
2018-07-01T19:07:28.563Z,31.69
2018-07-01T19:09:57.318Z,32.00
2018-07-01T19:12:26.090Z,32.11
2018-07-01T19:14:55.495Z,33.30
2018-07-01T19:17:24.947Z,32.72
2018-07-01T19:19:54.548Z,33.37
2018-07-01T19:22:24.056Z,33.39
2018-07-01T19:24:52.999Z,34.20
2018-07-01T19:27:21.840Z,34.66
2018-07-01T19:29:51.309Z,35.19
2018-07-01T19:32:20.102Z,34.12
2018-07-01T19:34:48.852Z,34.77
2018-07-01T19:37:17.888Z,34.33
2018-07-01T19:39:47.336Z,34.90
2018-07-01T19:42:16.301Z,34.77
2018-07-01T19:44:45.761Z,35.57
2018-07-01T19:47:14.746Z,35.16
2018-07-01T19:49:43.411Z,35.10
2018-07-01T19:52:12.235Z,36.23
2018-07-01T19:54:41.124Z,36.10
2018-07-01T19:57:10.990Z,36.08
2018-07-01T19:59:40.770Z,36.41
2018-07-01T20:02:10.138Z,36.93
2018-07-01T20:04:40.363Z,37.15
2018-07-01T20:07:10.930Z,37.59
2018-07-01T20:09:40.296Z,37.69
2018-07-01T20:12:23.711Z,38.01
2018-07-01T20:14:53.335Z,37.80
2018-07-01T20:17:22.731Z,38.37
2018-07-01T20:19:52.094Z,38.16
2018-07-01T20:22:21.946Z,38.67
2018-07-01T20:24:50.686Z,38.64
2018-07-01T20:27:19.672Z,38.50
2018-07-01T20:29:49.334Z,38.85
2018-07-01T20:32:18.109Z,39.60
2018-07-01T20:34:46.861Z,38.55
2018-07-01T20:37:15.698Z,39.58
2018-07-01T20:39:45.275Z,40.21
2018-07-01T20:42:14.083Z,39.62
2018-07-01T20:44:43.737Z,40.53
2018-07-01T20:47:12.618Z,39.54
2018-07-01T20:49:41.844Z,39.70
2018-07-01T20:52:11.350Z,39.78
2018-07-01T20:54:40.526Z,40.64
2018-07-01T20:57:10.378Z,40.90
2018-07-01T20:59:40.972Z,39.40
2018-07-01T21:02:10.876Z,40.19
2018-07-01T21:04:40.024Z,40.42
2018-07-01T21:07:09.992Z,39.70
2018-07-01T21:09:39.250Z,40.68
2018-07-01T21:12:08.029Z,41.09
2018-07-01T21:14:37.754Z,41.43
2018-07-01T21:17:07.488Z,40.84
2018-07-01T21:19:37.212Z,40.88
2018-07-01T21:22:06.650Z,40.89
2018-07-01T21:24:35.580Z,40.81
2018-07-01T21:27:04.380Z,41.00
2018-07-01T21:29:34.051Z,41.29
2018-07-01T21:32:02.855Z,40.94
2018-07-01T21:34:31.635Z,41.48
2018-07-01T21:37:00.434Z,41.76
2018-07-01T21:39:29.816Z,41.36
2018-07-01T21:41:59.734Z,41.56
2018-07-01T21:44:29.128Z,41.83
2018-07-01T21:46:57.825Z,41.49
2018-07-01T21:49:26.619Z,42.72
2018-07-01T21:51:55.712Z,42.88
2018-07-01T21:54:24.506Z,42.90
2018-07-01T21:56:54.304Z,42.44
2018-07-01T21:59:24.038Z,43.00
2018-07-01T22:01:52.864Z,43.06
2018-07-01T22:04:21.671Z,43.16
2018-07-01T22:06:56.910Z,42.82
2018-07-01T22:09:25.741Z,43.19
2018-07-01T22:12:06.350Z,43.17
2018-07-01T22:14:46.930Z,43.35
2018-07-01T22:17:16.570Z,43.44
2018-07-01T22:19:46.094Z,43.16
2018-07-01T22:22:15.768Z,43.05
2018-07-01T22:24:44.623Z,43.98
2018-07-01T22:27:13.443Z,43.40
2018-07-01T22:29:43.013Z,44.10
2018-07-01T22:32:12.125Z,44.82
2018-07-01T22:34:41.801Z,44.64
2018-07-01T22:37:11.232Z,44.63
2018-07-01T22:39:41.302Z,45.14
2018-07-01T22:42:10.470Z,44.63
2018-07-01T22:44:40.196Z,45.02
2018-07-01T22:47:10.051Z,45.62
2018-07-01T22:49:39.217Z,45.58
2018-07-01T22:52:08.193Z,46.60
2018-07-01T22:54:37.006Z,46.57
2018-07-01T22:57:06.940Z,45.63
2018-07-01T22:59:36.671Z,46.65
2018-07-01T23:03:14.215Z,46.83
2018-07-01T23:05:43.111Z,47.70
2018-07-01T23:08:12.607Z,47.75
2018-07-01T23:10:41.768Z,48.55
2018-07-01T23:13:11.016Z,47.85
2018-07-01T23:15:41.194Z,49.02
2018-07-01T23:18:11.661Z,49.10
2018-07-01T23:20:40.890Z,49.29
2018-07-01T23:23:11.081Z,49.02
2018-07-01T23:25:39.962Z,50.93
2018-07-01T23:28:09.887Z,50.09
2018-07-01T23:30:38.915Z,51.41
2018-07-01T23:33:07.787Z,51.16
2018-07-01T23:35:37.594Z,51.32
2018-07-01T23:38:06.490Z,52.10
2018-07-01T23:40:36.022Z,52.44
2018-07-01T23:43:05.767Z,53.21
2018-07-01T23:45:34.562Z,52.87
2018-07-01T23:48:03.370Z,53.45
2018-07-01T23:50:32.154Z,53.75
2018-07-01T23:53:03.952Z,54.10
2018-07-01T23:55:33.683Z,53.68
2018-07-01T23:58:02.579Z,55.05
